Time;durP1;ratioP1;P1;durP2;ratioP2;P2;SDS_P1;SDS_P2;PMS_P1;PMS_P2;Temp;Humidity;BMP_temperature;BMP_pressure;BME280_temperature;BME280_humidity;BME280_pressure;Samples;Min_cycle;Max_cycle;Signal;HPM_P1;HPM_P2
2023/07/26 00:00:13;;;;;;;;;;;14.90;55.10;;;;;;5014975;28;19971;-75
2023/07/26 00:02:39;;;;;;;;;;;14.90;55.20;;;;;;5011197;28;19941;-76
2023/07/26 00:05:04;;;;;;;;;;;14.90;55.20;;;;;;5007541;28;19909;-74
2023/07/26 00:07:30;;;;;;;;;;;14.90;55.20;;;;;;4989510;28;19917;-75
2023/07/26 00:09:55;;;;;;;;;;;14.90;55.20;;;;;;5010322;28;19920;-76
2023/07/26 00:12:21;;;;;;;;;;;14.80;55.30;;;;;;5010080;28;19918;-76
2023/07/26 00:14:46;;;;;;;;;;;14.80;55.60;;;;;;4993352;28;19917;-74
2023/07/26 00:17:12;;;;;;;;;;;14.80;55.70;;;;;;5024246;28;19917;-76
2023/07/26 00:19:37;;;;;;;;;;;14.80;55.70;;;;;;5029627;28;19928;-75
2023/07/26 00:22:03;;;;;;;;;;;14.80;55.50;;;;;;5029976;28;19921;-75
2023/07/26 00:24:28;;;;;;;;;;;14.80;55.50;;;;;;5030456;28;19920;-75
2023/07/26 00:26:54;;;;;;;;;;;14.80;55.70;;;;;;5030781;28;20372;-74
2023/07/26 00:29:19;;;;;;;;;;;14.70;55.80;;;;;;5029955;28;19996;-75
2023/07/26 00:31:44;;;;;;;;;;;14.70;55.70;;;;;;5029836;28;19953;-76
2023/07/26 00:34:10;;;;;;;;;;;14.70;55.70;;;;;;5030496;28;19942;-76
2023/07/26 00:36:35;;;;;;;;;;;14.70;55.90;;;;;;5012561;28;20376;-75
2023/07/26 00:39:03;;;;;;;;;;;14.70;55.80;;;;;;5030388;28;19917;-76
2023/07/26 00:41:28;;;;;;;;;;;14.70;55.80;;;;;;5029201;28;19917;-76
2023/07/26 00:43:54;;;;;;;;;;;14.60;55.80;;;;;;5035571;28;19977;-78
2023/07/26 00:46:19;;;;;;;;;;;14.60;55.70;;;;;;5038854;28;19932;-76
2023/07/26 00:48:45;;;;;;;;;;;14.50;55.80;;;;;;5009851;28;19916;-75
2023/07/26 00:51:11;;;;;;;;;;;14.50;55.80;;;;;;5009622;28;20012;-74
2023/07/26 00:53:36;;;;;;;;;;;14.50;55.80;;;;;;5010274;28;19967;-76
2023/07/26 00:56:02;;;;;;;;;;;14.40;55.90;;;;;;5010058;28;19929;-75
2023/07/26 00:58:28;;;;;;;;;;;14.40;56.00;;;;;;5019531;28;20390;-75
2023/07/26 01:00:53;;;;;;;;;;;14.40;56.10;;;;;;5027152;28;20365;-76
2023/07/26 01:03:19;;;;;;;;;;;14.40;56.10;;;;;;5010457;28;19968;-73
2023/07/26 01:05:53;;;;;;;;;;;14.40;56.40;;;;;;5009422;28;19949;-75
2023/07/26 01:08:34;;;;;;;;;;;;;;;;;;;;;
2023/07/26 01:11:05;;;;;;;;;;;14.40;57.30;;;;;;5009030;28;19943;-74
2023/07/26 01:13:30;;;;;;;;;;;14.40;57.10;;;;;;5009726;28;19909;-74
2023/07/26 01:15:56;;;;;;;;;;;14.40;57.10;;;;;;5011240;28;19951;-75
2023/07/26 01:18:21;;;;;;;;;;;14.40;57.20;;;;;;5019239;28;19913;-74
2023/07/26 01:20:47;;;;;;;;;;;14.40;57.40;;;;;;5009213;28;19909;-73
2023/07/26 01:23:12;;;;;;;;;;;14.40;57.60;;;;;;5029327;28;19913;-74
2023/07/26 01:25:38;;;;;;;;;;;14.40;57.70;;;;;;5029055;28;19979;-74
2023/07/26 01:28:04;;;;;;;;;;;14.40;57.70;;;;;;5016413;28;19981;-69
2023/07/26 01:30:30;;;;;;;;;;;14.50;58.00;;;;;;5011357;28;19913;-68
2023/07/26 01:32:58;;;;;;;;;;;14.50;57.90;;;;;;5010578;28;19917;-70
2023/07/26 01:35:24;;;;;;;;;;;14.50;57.60;;;;;;5017527;28;20179;-70
2023/07/26 01:37:50;;;;;;;;;;;14.50;57.60;;;;;;5026622;28;20364;-69
2023/07/26 01:40:16;;;;;;;;;;;14.50;57.40;;;;;;5028910;28;19971;-71
2023/07/26 01:42:42;;;;;;;;;;;14.50;57.40;;;;;;5028986;28;19956;-71
2023/07/26 01:45:09;;;;;;;;;;;14.50;57.50;;;;;;5044100;28;19966;-70
2023/07/26 01:47:34;;;;;;;;;;;14.50;58.10;;;;;;5018429;28;20435;-71
2023/07/26 01:50:00;;;;;;;;;;;14.50;58.00;;;;;;5006189;28;19917;-71
2023/07/26 01:52:26;;;;;;;;;;;14.60;58.00;;;;;;5011146;28;19917;-70
2023/07/26 01:54:51;;;;;;;;;;;14.60;57.90;;;;;;5028188;28;20511;-70
2023/07/26 01:57:17;;;;;;;;;;;14.70;58.40;;;;;;5028608;28;20249;-69
2023/07/26 01:59:42;;;;;;;;;;;14.70;58.60;;;;;;5028292;28;19963;-69
2023/07/26 02:02:08;;;;;;;;;;;14.80;58.80;;;;;;5028443;28;20061;-69
2023/07/26 02:04:33;;;;;;;;;;;14.80;58.90;;;;;;5028272;28;20254;-70
2023/07/26 02:06:58;;;;;;;;;;;14.90;59.00;;;;;;5028670;28;20377;-69
2023/07/26 02:09:24;;;;;;;;;;;15.00;59.20;;;;;;5028028;28;19917;-69
2023/07/26 02:11:49;;;;;;;;;;;15.00;59.20;;;;;;5028518;28;19933;-70
2023/07/26 02:14:15;;;;;;;;;;;15.10;59.10;;;;;;5027819;28;19913;-69
2023/07/26 02:16:41;;;;;;;;;;;15.20;59.20;;;;;;5027356;28;20392;-70
2023/07/26 02:19:06;;;;;;;;;;;15.30;59.20;;;;;;5012293;28;19940;-69
2023/07/26 02:21:32;;;;;;;;;;;15.30;59.10;;;;;;5020882;28;19917;-69
2023/07/26 02:23:57;;;;;;;;;;;15.40;59.00;;;;;;5008304;28;19925;-69
2023/07/26 02:26:23;;;;;;;;;;;15.40;58.90;;;;;;5012942;28;19944;-69
2023/07/26 02:28:48;;;;;;;;;;;15.50;58.80;;;;;;5015286;28;20369;-69
2023/07/26 02:31:13;;;;;;;;;;;15.50;58.70;;;;;;5022478;28;20445;-69
2023/07/26 02:33:39;;;;;;;;;;;15.50;58.90;;;;;;5007837;28;20370;-69
2023/07/26 02:36:04;;;;;;;;;;;15.60;58.90;;;;;;5015595;28;19968;-70
2023/07/26 02:38:30;;;;;;;;;;;15.60;58.90;;;;;;5008152;28;19924;-70
2023/07/26 02:40:55;;;;;;;;;;;15.70;58.80;;;;;;5023020;28;19917;-70
2023/07/26 02:43:21;;;;;;;;;;;15.80;58.90;;;;;;5010374;28;20295;-69
2023/07/26 02:45:46;;;;;;;;;;;15.80;58.80;;;;;;5045396;28;19948;-69
2023/07/26 02:48:12;;;;;;;;;;;15.80;58.80;;;;;;5026893;28;19921;-70
2023/07/26 02:50:37;;;;;;;;;;;15.80;58.80;;;;;;5027503;28;19955;-69
2023/07/26 02:53:03;;;;;;;;;;;15.90;58.90;;;;;;5026987;28;20373;-69
2023/07/26 02:55:28;;;;;;;;;;;15.90;58.90;;;;;;5027510;28;20223;-70
2023/07/26 02:57:54;;;;;;;;;;;16.00;58.90;;;;;;5028005;28;19921;-69
2023/07/26 03:00:19;;;;;;;;;;;16.00;59.00;;;;;;5009940;28;19964;-70
2023/07/26 03:02:45;;;;;;;;;;;16.00;59.10;;;;;;5024521;28;19971;-69
2023/07/26 03:05:10;;;;;;;;;;;16.10;59.20;;;;;;5026559;28;20032;-70
2023/07/26 03:07:36;;;;;;;;;;;16.10;59.10;;;;;;5026243;28;19928;-69
2023/07/26 03:10:01;;;;;;;;;;;16.20;59.10;;;;;;5027398;28;19917;-70
2023/07/26 03:12:27;;;;;;;;;;;16.30;59.00;;;;;;5014898;28;19918;-70
2023/07/26 03:14:52;;;;;;;;;;;16.30;58.90;;;;;;5010047;28;20285;-69
2023/07/26 03:17:18;;;;;;;;;;;16.30;58.90;;;;;;5017946;28;19925;-69
2023/07/26 03:19:43;;;;;;;;;;;16.30;58.70;;;;;;5030874;28;19948;-70
2023/07/26 03:22:09;;;;;;;;;;;16.40;58.70;;;;;;5031327;28;19929;-70
2023/07/26 03:24:34;;;;;;;;;;;16.50;58.50;;;;;;5030993;28;20272;-69
2023/07/26 03:26:59;;;;;;;;;;;16.50;58.40;;;;;;5031483;28;19967;-69
2023/07/26 03:29:25;;;;;;;;;;;16.50;58.40;;;;;;5029944;28;19967;-69
2023/07/26 03:31:50;;;;;;;;;;;16.50;58.30;;;;;;5029723;28;19932;-69
2023/07/26 03:34:16;;;;;;;;;;;16.50;58.20;;;;;;5031031;28;20004;-69
2023/07/26 03:36:41;;;;;;;;;;;16.50;58.10;;;;;;5030010;28;19918;-69
2023/07/26 03:39:07;;;;;;;;;;;16.50;58.20;;;;;;5023667;28;19979;-69
2023/07/26 03:41:32;;;;;;;;;;;16.50;58.10;;;;;;5031388;28;20383;-70
2023/07/26 03:43:58;;;;;;;;;;;16.50;58.00;;;;;;5039553;28;19974;-69
2023/07/26 03:46:23;;;;;;;;;;;16.40;57.90;;;;;;5055082;28;19989;-71
2023/07/26 03:48:48;;;;;;;;;;;16.50;57.90;;;;;;5054117;28;19930;-69
2023/07/26 03:51:14;;;;;;;;;;;16.40;57.90;;;;;;5032741;28;19947;-69
2023/07/26 03:53:39;;;;;;;;;;;16.40;57.90;;;;;;5034278;28;19975;-69
2023/07/26 03:56:05;;;;;;;;;;;16.40;58.00;;;;;;5034939;28;20329;-70
2023/07/26 03:58:30;;;;;;;;;;;16.40;58.00;;;;;;5034816;28;19913;-69
2023/07/26 04:00:56;;;;;;;;;;;16.30;58.00;;;;;;5034478;28;19921;-69
2023/07/26 04:03:21;;;;;;;;;;;16.30;57.90;;;;;;5034360;28;19913;-69
2023/07/26 04:05:47;;;;;;;;;;;16.30;57.90;;;;;;5034493;28;19999;-69
2023/07/26 04:08:12;;;;;;;;;;;16.20;57.90;;;;;;5034253;28;19910;-69
2023/07/26 04:10:38;;;;;;;;;;;16.20;58.00;;;;;;5030583;28;20010;-70
2023/07/26 04:13:03;;;;;;;;;;;16.20;58.10;;;;;;5030370;28;19913;-70
2023/07/26 04:15:29;;;;;;;;;;;16.20;58.00;;;;;;5032505;28;19932;-69
2023/07/26 04:17:54;;;;;;;;;;;16.20;58.10;;;;;;5034902;28;19921;-69
2023/07/26 04:20:20;;;;;;;;;;;16.20;58.20;;;;;;5034336;28;19917;-69
2023/07/26 04:22:45;;;;;;;;;;;16.20;58.20;;;;;;5034120;28;19917;-69
2023/07/26 04:25:11;;;;;;;;;;;16.20;58.30;;;;;;5033049;28;19967;-70
2023/07/26 04:27:36;;;;;;;;;;;16.20;58.20;;;;;;5035051;28;19917;-69
2023/07/26 04:30:02;;;;;;;;;;;16.30;58.30;;;;;;5032539;28;20387;-70
2023/07/26 04:32:28;;;;;;;;;;;16.30;58.30;;;;;;5033822;28;19917;-69
2023/07/26 04:34:53;;;;;;;;;;;16.40;58.40;;;;;;5033573;28;20266;-69
2023/07/26 04:37:19;;;;;;;;;;;16.40;58.40;;;;;;5033228;28;19967;-69
2023/07/26 04:39:47;;;;;;;;;;;16.40;58.30;;;;;;5032734;28;19921;-70
2023/07/26 04:42:13;;;;;;;;;;;16.40;58.40;;;;;;5033170;28;20288;-69
2023/07/26 04:44:38;;;;;;;;;;;16.40;58.40;;;;;;5027882;28;19924;-68
2023/07/26 04:47:04;;;;;;;;;;;16.40;58.40;;;;;;5014558;28;19925;-69
2023/07/26 04:49:29;;;;;;;;;;;16.50;58.50;;;;;;5003496;28;19918;-70
2023/07/26 04:51:55;;;;;;;;;;;16.50;58.60;;;;;;5012887;28;19924;-68
2023/07/26 04:54:20;;;;;;;;;;;16.70;58.80;;;;;;5012701;28;20406;-69
2023/07/26 04:56:46;;;;;;;;;;;16.80;58.90;;;;;;5013735;28;19914;-68
2023/07/26 04:59:11;;;;;;;;;;;16.90;58.90;;;;;;5010082;28;19923;-69
2023/07/26 05:01:37;;;;;;;;;;;17.10;58.80;;;;;;5032263;28;20253;-69
2023/07/26 05:04:02;;;;;;;;;;;17.20;58.70;;;;;;5029911;28;20280;-69
2023/07/26 05:06:30;;;;;;;;;;;17.30;58.70;;;;;;5031203;28;20353;-69
2023/07/26 05:08:55;;;;;;;;;;;17.50;58.50;;;;;;5033491;28;20344;-69
2023/07/26 05:11:22;;;;;;;;;;;17.60;58.50;;;;;;5030593;28;19917;-70
2023/07/26 05:13:51;;;;;;;;;;;17.80;58.30;;;;;;5033482;28;19940;-69
2023/07/26 05:16:16;;;;;;;;;;;18.00;58.10;;;;;;5033558;28;19967;-70
2023/07/26 05:18:42;;;;;;;;;;;18.10;57.90;;;;;;5033113;28;19960;-70
2023/07/26 05:21:07;;;;;;;;;;;18.30;57.60;;;;;;5033280;28;19944;-69
2023/07/26 05:23:33;;;;;;;;;;;18.30;57.30;;;;;;5033360;28;19916;-69
2023/07/26 05:25:58;;;;;;;;;;;18.50;57.20;;;;;;5033220;28;20036;-69
2023/07/26 05:28:24;;;;;;;;;;;18.60;56.90;;;;;;5033154;28;20399;-69
2023/07/26 05:30:49;;;;;;;;;;;18.70;56.70;;;;;;5033061;28;19909;-69
2023/07/26 05:33:15;;;;;;;;;;;18.80;56.30;;;;;;5032853;28;19909;-69
2023/07/26 05:35:40;;;;;;;;;;;18.80;56.30;;;;;;5033002;28;19913;-69
2023/07/26 05:38:06;;;;;;;;;;;18.80;56.20;;;;;;5032862;28;19916;-70
2023/07/26 05:40:31;;;;;;;;;;;18.80;55.90;;;;;;5032734;28;19920;-69
2023/07/26 05:42:57;;;;;;;;;;;18.80;55.70;;;;;;5033509;28;19921;-69
2023/07/26 05:45:22;;;;;;;;;;;18.80;55.70;;;;;;5050196;28;19932;-69
2023/07/26 05:47:47;;;;;;;;;;;18.70;55.70;;;;;;5053003;28;20361;-70
2023/07/26 05:50:14;;;;;;;;;;;18.70;55.60;;;;;;5052434;28;20369;-69
2023/07/26 05:52:40;;;;;;;;;;;18.70;55.60;;;;;;5052620;28;19921;-69
2023/07/26 05:55:06;;;;;;;;;;;18.70;55.70;;;;;;5052406;28;19970;-70
2023/07/26 05:57:31;;;;;;;;;;;18.70;55.70;;;;;;5052909;28;19920;-71
2023/07/26 05:59:57;;;;;;;;;;;18.70;55.80;;;;;;5052853;28;19962;-69
2023/07/26 06:02:22;;;;;;;;;;;19.00;56.90;;;;;;5039399;28;19928;-69
2023/07/26 06:04:49;;;;;;;;;;;19.50;58.20;;;;;;5030248;28;21283;-70
2023/07/26 06:07:15;;;;;;;;;;;20.30;58.30;;;;;;5046146;28;20338;-69
2023/07/26 06:09:40;;;;;;;;;;;21.00;56.20;;;;;;5052288;28;19919;-70
2023/07/26 06:12:06;;;;;;;;;;;21.70;55.60;;;;;;5050093;28;19919;-70
2023/07/26 06:14:32;;;;;;;;;;;22.50;54.80;;;;;;5026979;28;19917;-70
2023/07/26 06:16:58;;;;;;;;;;;23.40;53.00;;;;;;5051019;28;19919;-70
2023/07/26 06:19:23;;;;;;;;;;;24.20;50.60;;;;;;5050770;28;20016;-70
2023/07/26 06:21:49;;;;;;;;;;;24.80;49.60;;;;;;5052288;28;20388;-70
2023/07/26 06:24:14;;;;;;;;;;;25.40;48.10;;;;;;5043068;28;19928;-70
2023/07/26 06:26:40;;;;;;;;;;;26.00;46.70;;;;;;5051857;28;19913;-69
2023/07/26 06:29:05;;;;;;;;;;;26.60;45.80;;;;;;5049928;28;19924;-71
2023/07/26 06:31:30;;;;;;;;;;;27.20;44.70;;;;;;5052126;28;19912;-70
2023/07/26 06:33:56;;;;;;;;;;;27.80;43.50;;;;;;5037928;28;20365;-70
2023/07/26 06:36:21;;;;;;;;;;;28.40;42.40;;;;;;5037802;28;19917;-70
2023/07/26 06:38:47;;;;;;;;;;;29.00;40.30;;;;;;5051713;28;19924;-70
2023/07/26 06:41:12;;;;;;;;;;;29.50;40.30;;;;;;5049438;28;20004;-70
2023/07/26 06:43:38;;;;;;;;;;;30.20;39.20;;;;;;5043519;28;19921;-70
2023/07/26 06:46:03;;;;;;;;;;;30.80;38.70;;;;;;5051795;28;19944;-70
2023/07/26 06:48:28;;;;;;;;;;;31.50;36.80;;;;;;5050383;28;20379;-70
2023/07/26 06:50:54;;;;;;;;;;;32.10;36.40;;;;;;5048175;28;19928;-70
2023/07/26 06:53:20;;;;;;;;;;;32.70;34.10;;;;;;5046979;28;20347;-71
2023/07/26 06:55:45;;;;;;;;;;;33.20;31.90;;;;;;5039250;28;19920;-71
2023/07/26 06:58:11;;;;;;;;;;;33.20;30.60;;;;;;5034471;28;19917;-70
2023/07/26 07:00:36;;;;;;;;;;;32.90;30.60;;;;;;5044652;28;20400;-70
2023/07/26 07:03:03;;;;;;;;;;;32.80;31.10;;;;;;5031428;28;19925;-70
2023/07/26 07:05:29;;;;;;;;;;;32.80;30.60;;;;;;5031615;28;19909;-71
2023/07/26 07:07:54;;;;;;;;;;;32.80;29.80;;;;;;5031743;28;19917;-76
2023/07/26 07:10:23;;;;;;;;;;;32.70;30.00;;;;;;5034265;28;19917;-75
2023/07/26 07:12:48;;;;;;;;;;;32.90;30.70;;;;;;5052019;28;20317;-76
2023/07/26 07:15:14;;;;;;;;;;;33.20;30.50;;;;;;5032764;28;19928;-75
2023/07/26 07:17:40;;;;;;;;;;;33.50;30.40;;;;;;5033719;28;19968;-76
2023/07/26 07:20:07;;;;;;;;;;;34.00;29.90;;;;;;5042029;28;20368;-75
2023/07/26 07:22:32;;;;;;;;;;;34.30;29.10;;;;;;5054019;28;19913;-75
2023/07/26 07:24:58;;;;;;;;;;;34.50;28.50;;;;;;5054700;28;19924;-76
2023/07/26 07:27:24;;;;;;;;;;;34.70;28.40;;;;;;5051367;28;19913;-76
2023/07/26 07:29:49;;;;;;;;;;;34.90;27.90;;;;;;5028683;28;19925;-76
2023/07/26 07:32:16;;;;;;;;;;;34.90;27.50;;;;;;5034622;28;19916;-76
2023/07/26 07:34:41;;;;;;;;;;;35.30;28.10;;;;;;5035368;28;20000;-75
2023/07/26 07:37:07;;;;;;;;;;;35.60;27.60;;;;;;5034322;28;20005;-76
2023/07/26 07:39:32;;;;;;;;;;;35.90;27.20;;;;;;5034790;28;19921;-75
2023/07/26 07:41:58;;;;;;;;;;;36.00;25.60;;;;;;5030394;28;19921;-76
2023/07/26 07:44:23;;;;;;;;;;;35.70;25.90;;;;;;5033149;28;19952;-74
2023/07/26 07:46:49;;;;;;;;;;;35.40;25.70;;;;;;5047821;28;20026;-76
2023/07/26 07:49:14;;;;;;;;;;;35.00;26.20;;;;;;5034015;28;20017;-76
2023/07/26 07:51:40;;;;;;;;;;;34.70;26.60;;;;;;5034759;28;20361;-76
2023/07/26 07:54:05;;;;;;;;;;;34.30;26.50;;;;;;5040226;28;19932;-75
2023/07/26 07:56:31;;;;;;;;;;;34.00;26.90;;;;;;5054886;28;20290;-76
2023/07/26 07:58:56;;;;;;;;;;;33.90;27.10;;;;;;5047620;28;19978;-75
2023/07/26 08:01:22;;;;;;;;;;;33.80;27.10;;;;;;5033864;28;19916;-76
2023/07/26 08:03:47;;;;;;;;;;;33.50;26.40;;;;;;5015654;28;19917;-76
2023/07/26 08:06:13;;;;;;;;;;;33.20;26.90;;;;;;5042629;28;20268;-76
2023/07/26 08:08:39;;;;;;;;;;;33.10;27.30;;;;;;5051957;28;19921;-76
2023/07/26 08:11:05;;;;;;;;;;;33.30;27.50;;;;;;5054446;28;19917;-76
2023/07/26 08:13:30;;;;;;;;;;;33.30;27.00;;;;;;5041491;28;19924;-76
2023/07/26 08:15:58;;;;;;;;;;;33.30;27.00;;;;;;5034755;28;19917;-76
2023/07/26 08:18:24;;;;;;;;;;;33.50;27.40;;;;;;5036078;28;20380;-75
2023/07/26 08:20:49;;;;;;;;;;;33.60;27.00;;;;;;5053130;28;19966;-73
2023/07/26 08:23:15;;;;;;;;;;;33.50;26.10;;;;;;5033206;28;19918;-77
2023/07/26 08:25:40;;;;;;;;;;;33.30;26.60;;;;;;5033986;28;20373;-75
2023/07/26 08:28:06;;;;;;;;;;;33.40;27.10;;;;;;5031716;28;19917;-75
2023/07/26 08:30:32;;;;;;;;;;;33.60;27.10;;;;;;5036441;28;20009;-75
2023/07/26 08:32:57;;;;;;;;;;;33.50;26.60;;;;;;5054664;28;20359;-76
2023/07/26 08:35:23;;;;;;;;;;;33.80;26.50;;;;;;5053901;28;19913;-75
2023/07/26 08:37:48;;;;;;;;;;;34.10;26.30;;;;;;5051035;28;19959;-75
2023/07/26 08:40:14;;;;;;;;;;;34.10;25.70;;;;;;5051735;28;19990;-76
2023/07/26 08:42:40;;;;;;;;;;;34.00;25.80;;;;;;5054149;28;20007;-76
2023/07/26 08:45:06;;;;;;;;;;;34.30;26.00;;;;;;5051808;28;19920;-76
2023/07/26 08:47:32;;;;;;;;;;;34.60;25.50;;;;;;5054220;28;20280;-76
2023/07/26 08:49:58;;;;;;;;;;;34.90;25.00;;;;;;5053763;28;20364;-80
2023/07/26 08:52:24;;;;;;;;;;;35.30;25.00;;;;;;5051464;28;19920;-75
2023/07/26 08:54:49;;;;;;;;;;;35.80;23.90;;;;;;5038827;28;19970;-77
2023/07/26 08:57:16;;;;;;;;;;;36.00;23.00;;;;;;5033946;28;19917;-77
2023/07/26 08:59:42;;;;;;;;;;;36.30;23.10;;;;;;5021988;28;19980;-77
2023/07/26 09:02:09;;;;;;;;;;;36.60;23.00;;;;;;5033973;28;20004;-76
2023/07/26 09:04:34;;;;;;;;;;;36.90;23.10;;;;;;5034447;28;20225;-77
2023/07/26 09:07:01;;;;;;;;;;;37.40;22.60;;;;;;5033765;28;19913;-76
2023/07/26 09:09:27;;;;;;;;;;;38.00;22.20;;;;;;5042503;28;19923;-76
2023/07/26 09:11:52;;;;;;;;;;;38.20;20.00;;;;;;5053719;28;20280;-76
2023/07/26 09:14:18;;;;;;;;;;;37.80;19.70;;;;;;5051385;28;19917;-75
2023/07/26 09:16:43;;;;;;;;;;;37.40;20.30;;;;;;5053255;28;20003;-76
2023/07/26 09:19:09;;;;;;;;;;;37.50;20.90;;;;;;5051415;28;19917;-75
2023/07/26 09:21:35;;;;;;;;;;;37.60;21.10;;;;;;5013769;28;19917;-77
2023/07/26 09:24:01;;;;;;;;;;;38.00;21.20;;;;;;5028280;28;19917;-76
2023/07/26 09:26:31;;;;;;;;;;;38.40;20.70;;;;;;5033176;28;20327;-76
2023/07/26 09:28:57;;;;;;;;;;;38.80;20.80;;;;;;5031316;28;19918;-76
2023/07/26 09:31:30;;;;;;;;;;;39.10;20.10;;;;;;5033198;28;19920;-76
2023/07/26 09:33:55;;;;;;;;;;;39.40;20.20;;;;;;5032936;28;19917;-76
2023/07/26 09:36:20;;;;;;;;;;;39.60;19.60;;;;;;5051176;28;19913;-75
2023/07/26 09:38:46;;;;;;;;;;;39.90;19.40;;;;;;5052627;28;20007;-76
2023/07/26 09:41:23;;;;;;;;;;;40.10;19.60;;;;;;5050544;28;20348;-75
2023/07/26 09:43:49;;;;;;;;;;;40.00;18.80;;;;;;5052640;28;19920;-76
2023/07/26 09:46:15;;;;;;;;;;;39.40;18.90;;;;;;5050494;28;19927;-76
2023/07/26 09:48:58;;;;;;;;;;;39.10;19.00;;;;;;5052551;28;20424;-75
2023/07/26 09:51:25;;;;;;;;;;;38.80;19.30;;;;;;5052615;28;20341;-76
2023/07/26 09:53:52;;;;;;;;;;;39.10;19.30;;;;;;5048924;28;20352;-76
2023/07/26 09:56:17;;;;;;;;;;;39.30;19.20;;;;;;5052399;28;19916;-76
2023/07/26 09:58:45;;;;;;;;;;;39.50;19.20;;;;;;5048038;28;20289;-75
2023/07/26 10:01:12;;;;;;;;;;;39.70;19.10;;;;;;5052677;28;19935;-73
2023/07/26 10:03:39;;;;;;;;;;;39.70;18.70;;;;;;5037476;28;19964;-75
2023/07/26 10:06:04;;;;;;;;;;;39.80;17.70;;;;;;5035303;28;20251;-76
2023/07/26 10:08:30;;;;;;;;;;;39.80;17.90;;;;;;5032297;28;19974;-76
2023/07/26 10:10:57;;;;;;;;;;;40.00;18.40;;;;;;5032346;28;19913;-75
2023/07/26 10:13:24;;;;;;;;;;;40.30;18.20;;;;;;5048273;28;19928;-75
2023/07/26 10:15:50;;;;;;;;;;;40.40;17.20;;;;;;5039063;28;20006;-75
2023/07/26 10:18:17;;;;;;;;;;;40.20;17.40;;;;;;5028536;28;19926;-75
2023/07/26 10:20:43;;;;;;;;;;;40.10;17.60;;;;;;5030324;28;19920;-75
2023/07/26 10:23:10;;;;;;;;;;;40.10;18.00;;;;;;5031891;28;19921;-76
2023/07/26 10:25:36;;;;;;;;;;;40.00;18.30;;;;;;5041833;28;19913;-76
2023/07/26 10:28:02;;;;;;;;;;;40.00;18.00;;;;;;5034057;28;19967;-75
2023/07/26 10:30:28;;;;;;;;;;;39.90;17.90;;;;;;5046592;28;20149;-76
2023/07/26 10:32:53;;;;;;;;;;;40.00;18.30;;;;;;5030565;28;19941;-75
2023/07/26 10:35:29;;;;;;;;;;;40.10;18.40;;;;;;5031747;28;19913;-75
2023/07/26 10:37:56;;;;;;;;;;;40.30;17.90;;;;;;5046027;28;19917;-75
2023/07/26 10:40:32;;;;;;;;;;;40.30;17.70;;;;;;5047683;28;19960;-75
2023/07/26 10:42:58;;;;;;;;;;;40.20;17.60;;;;;;5052247;28;19913;-75
2023/07/26 10:45:36;;;;;;;;;;;39.90;18.00;;;;;;5033863;28;20008;-75
2023/07/26 10:48:02;;;;;;;;;;;39.60;17.80;;;;;;5048451;28;20560;-75
2023/07/26 10:50:27;;;;;;;;;;;39.00;18.00;;;;;;5051721;28;19963;-76
2023/07/26 10:52:53;;;;;;;;;;;38.50;18.00;;;;;;5021603;28;20296;-76
2023/07/26 10:55:26;;;;;;;;;;;38.00;18.50;;;;;;5031328;28;19913;-76
2023/07/26 10:57:52;;;;;;;;;;;37.70;19.00;;;;;;5037259;28;19947;-73
2023/07/26 11:00:22;;;;;;;;;;;37.30;19.40;;;;;;5033631;28;19917;-76
2023/07/26 11:02:49;;;;;;;;;;;36.90;19.70;;;;;;5049439;28;20012;-75
2023/07/26 11:05:15;;;;;;;;;;;36.50;19.90;;;;;;5050540;28;19917;-75
2023/07/26 11:07:47;;;;;;;;;;;36.10;20.30;;;;;;5035107;28;20381;-76
2023/07/26 11:10:17;;;;;;;;;;;35.90;21.10;;;;;;5030241;28;19917;-75
2023/07/26 11:12:43;;;;;;;;;;;36.10;21.60;;;;;;5030340;28;19913;-75
2023/07/26 11:15:08;;;;;;;;;;;36.20;21.10;;;;;;5046930;28;19917;-75
2023/07/26 11:17:39;;;;;;;;;;;36.20;21.60;;;;;;5050893;28;19920;-76
2023/07/26 11:20:04;;;;;;;;;;;36.50;21.90;;;;;;5050260;28;19968;-76
2023/07/26 11:22:30;;;;;;;;;;;36.70;21.50;;;;;;5051410;28;20011;-76
2023/07/26 11:24:55;;;;;;;;;;;36.70;21.10;;;;;;5043638;28;19999;-75
2023/07/26 11:27:21;;;;;;;;;;;36.70;20.60;;;;;;5049703;28;19912;-76
2023/07/26 11:29:47;;;;;;;;;;;36.70;20.80;;;;;;5051118;28;19913;-76
2023/07/26 11:32:23;;;;;;;;;;;36.80;20.60;;;;;;5039628;28;19920;-75
2023/07/26 11:34:53;;;;;;;;;;;36.60;20.20;;;;;;5036775;28;19921;-76
2023/07/26 11:37:18;;;;;;;;;;;36.30;20.40;;;;;;5051097;28;19916;-76
2023/07/26 11:39:44;;;;;;;;;;;36.00;20.60;;;;;;5047644;28;19921;-75
2023/07/26 11:42:09;;;;;;;;;;;35.70;20.60;;;;;;5051228;28;20364;-75
2023/07/26 11:44:35;;;;;;;;;;;35.20;20.90;;;;;;5050884;28;19917;-76
2023/07/26 11:47:01;;;;;;;;;;;34.80;21.40;;;;;;5048809;28;19913;-74
2023/07/26 11:49:27;;;;;;;;;;;34.50;21.30;;;;;;5051313;28;19944;-76
2023/07/26 11:51:52;;;;;;;;;;;34.10;21.80;;;;;;5048417;28;19964;-77
2023/07/26 11:54:18;;;;;;;;;;;33.70;22.10;;;;;;5050636;28;19921;-77
2023/07/26 11:56:44;;;;;;;;;;;33.30;22.50;;;;;;5050676;28;19913;-76
2023/07/26 11:59:10;;;;;;;;;;;33.10;23.00;;;;;;5048629;28;19974;-75
2023/07/26 12:01:39;;;;;;;;;;;33.00;23.20;;;;;;5051197;28;20276;-77
2023/07/26 12:04:08;;;;;;;;;;;33.10;23.60;;;;;;5048753;28;20059;-74
2023/07/26 12:06:35;;;;;;;;;;;33.30;23.70;;;;;;5052152;28;19952;-74
2023/07/26 12:09:02;;;;;;;;;;;33.50;23.60;;;;;;5054986;28;20454;-77
2023/07/26 12:11:28;;;;;;;;;;;33.80;23.50;;;;;;5052379;28;19995;-76
2023/07/26 12:13:55;;;;;;;;;;;34.10;23.50;;;;;;5032924;28;20337;-77
2023/07/26 12:16:26;;;;;;;;;;;34.30;23.00;;;;;;5034506;28;19913;-77
2023/07/26 12:18:53;;;;;;;;;;;34.30;23.10;;;;;;5034410;28;19917;-77
2023/07/26 12:21:22;;;;;;;;;;;34.30;22.80;;;;;;5034499;28;20382;-76
2023/07/26 12:23:49;;;;;;;;;;;34.30;22.80;;;;;;5034392;28;19919;-77
2023/07/26 12:26:14;;;;;;;;;;;34.50;22.70;;;;;;5034091;28;19940;-76
2023/07/26 12:28:40;;;;;;;;;;;34.60;22.50;;;;;;5051879;28;20297;-77
2023/07/26 12:31:05;;;;;;;;;;;34.60;22.20;;;;;;5054332;28;19975;-76
2023/07/26 12:33:31;;;;;;;;;;;34.30;22.60;;;;;;5040524;28;20362;-76
2023/07/26 12:35:56;;;;;;;;;;;34.30;22.90;;;;;;5034129;28;20265;-76
2023/07/26 12:38:23;;;;;;;;;;;34.40;23.10;;;;;;5034574;28;19925;-77
2023/07/26 12:40:51;;;;;;;;;;;34.50;22.90;;;;;;5036347;28;19917;-77
2023/07/26 12:43:21;;;;;;;;;;;34.50;22.10;;;;;;5034268;28;20012;-77
2023/07/26 12:45:46;;;;;;;;;;;34.50;22.10;;;;;;5052976;28;19909;-77
2023/07/26 12:48:12;;;;;;;;;;;34.70;22.10;;;;;;5053811;28;19966;-77
2023/07/26 12:50:39;;;;;;;;;;;34.80;21.80;;;;;;5054428;28;19909;-77
2023/07/26 12:53:06;;;;;;;;;;;34.80;20.70;;;;;;5035269;28;19925;-75
2023/07/26 12:55:32;;;;;;;;;;;34.70;21.10;;;;;;5033584;28;19948;-77
2023/07/26 12:57:57;;;;;;;;;;;34.70;21.50;;;;;;5033047;28;19949;-77
2023/07/26 13:00:23;;;;;;;;;;;34.70;21.40;;;;;;5033510;28;19924;-76
2023/07/26 13:02:48;;;;;;;;;;;34.90;21.60;;;;;;5034092;28;19919;-77
2023/07/26 13:05:14;;;;;;;;;;;35.10;21.30;;;;;;5050370;28;20281;-76
2023/07/26 13:07:39;;;;;;;;;;;35.10;21.00;;;;;;5053798;28;20305;-77
2023/07/26 13:10:05;;;;;;;;;;;34.90;21.00;;;;;;5050768;28;20012;-75
2023/07/26 13:12:30;;;;;;;;;;;35.00;21.40;;;;;;5053672;28;19912;-77
2023/07/26 13:14:56;;;;;;;;;;;35.00;21.70;;;;;;5043645;28;20320;-76
2023/07/26 13:17:21;;;;;;;;;;;35.20;21.20;;;;;;5015598;28;19917;-76
2023/07/26 13:19:47;;;;;;;;;;;35.50;21.60;;;;;;5033469;28;19925;-76
2023/07/26 13:22:13;;;;;;;;;;;35.70;21.30;;;;;;5049128;28;20376;-76
2023/07/26 13:24:38;;;;;;;;;;;35.70;21.30;;;;;;5048189;28;19913;-76
2023/07/26 13:27:04;;;;;;;;;;;35.40;21.20;;;;;;5038347;28;19913;-76
2023/07/26 13:29:29;;;;;;;;;;;35.10;21.40;;;;;;5052966;28;19952;-77
2023/07/26 13:31:55;;;;;;;;;;;34.90;21.60;;;;;;5053239;28;20368;-76
2023/07/26 13:34:20;;;;;;;;;;;35.00;21.80;;;;;;5014852;28;19925;-76
2023/07/26 13:36:46;;;;;;;;;;;35.00;21.90;;;;;;5037963;28;19937;-76
2023/07/26 13:39:11;;;;;;;;;;;34.90;22.00;;;;;;5050085;28;19925;-75
2023/07/26 13:41:36;;;;;;;;;;;35.10;22.20;;;;;;5052977;28;19913;-76
2023/07/26 13:44:02;;;;;;;;;;;35.10;21.90;;;;;;5052170;28;20145;-73
2023/07/26 13:46:27;;;;;;;;;;;34.70;22.00;;;;;;5051513;28;19919;-76
2023/07/26 13:48:53;;;;;;;;;;;34.40;22.10;;;;;;5052819;28;19917;-73
2023/07/26 13:51:18;;;;;;;;;;;34.00;22.40;;;;;;5031056;28;19913;-76
2023/07/26 13:53:44;;;;;;;;;;;33.50;23.00;;;;;;5052446;28;19927;-75
2023/07/26 13:56:09;;;;;;;;;;;33.20;23.40;;;;;;5050266;28;19913;-75
2023/07/26 13:58:34;;;;;;;;;;;32.90;23.70;;;;;;5014731;28;19920;-76
2023/07/26 14:01:00;;;;;;;;;;;32.60;24.00;;;;;;5032426;28;19913;-76
2023/07/26 14:03:26;;;;;;;;;;;32.30;24.10;;;;;;5030777;28;20292;-76
2023/07/26 14:05:51;;;;;;;;;;;32.20;24.60;;;;;;5032612;28;19913;-76
2023/07/26 14:08:17;;;;;;;;;;;32.30;24.80;;;;;;5014692;28;19913;-76
2023/07/26 14:10:42;;;;;;;;;;;32.40;24.60;;;;;;5031823;28;19917;-75